Wetterstation Vordersexau
Wetterdaten: Woche 29.01.18 - 04.02.18 (KW5)
Datum Zeit Temp. A. Feuchte A. Luftdruck Regen Wind Richtung Taupunkt Windchill Windben
29.01.2018 00:00 4,7 C 86 % 1033,5 hPa 0,0 l/m 0,0 km/h NO 2,6 C 4,7 C 0,0 km/h
29.01.2018 01:00 3,7 C 85 % 1033,2 hPa 0,0 l/m 0,0 km/h NO 1,4 C 3,7 C 0,0 km/h
29.01.2018 02:00 2,9 C 85 % 1033,0 hPa 0,0 l/m 0,0 km/h O-SO 0,6 C 2,9 C 0,0 km/h
29.01.2018 03:00 3,8 C 83 % 1032,6 hPa 0,0 l/m 0,0 km/h O-NO 1,2 C 3,8 C 0,0 km/h
29.01.2018 04:00 4,6 C 82 % 1032,3 hPa 0,0 l/m 0,0 km/h NW 1,8 C 4,6 C 0,0 km/h
29.01.2018 05:00 6,6 C 83 % 1032,5 hPa 0,0 l/m 0,0 km/h W-SW 3,9 C 6,6 C 0,0 km/h
29.01.2018 06:00 7,1 C 86 % 1032,8 hPa 0,0 l/m 10,4 km/h W-NW 4,9 C 4,1 C 5,8 km/h
29.01.2018 07:00 7,0 C 86 % 1032,6 hPa 0,0 l/m 9,1 km/h W-NW 4,8 C 4,9 C 5,0 km/h
29.01.2018 08:00 7,1 C 85 % 1032,3 hPa 0,0 l/m 6,5 km/h W 4,8 C 7,0 C 3,6 km/h
29.01.2018 09:00 7,9 C 84 % 1031,9 hPa 0,0 l/m 9,1 km/h W 5,4 C 5,9 C 5,0 km/h
29.01.2018 10:00 8,6 C 80 % 1031,5 hPa 0,0 l/m 24,6 km/h W-NW 5,3 C 0,0 C 13,7 km/h
29.01.2018 11:00 9,4 C 79 % 1030,7 hPa 0,0 l/m 11,7 km/h NW 5,9 C 6,0 C 6,5 km/h
29.01.2018 12:00 9,4 C 80 % 1029,9 hPa 0,0 l/m 16,8 km/h W 6,1 C 3,7 C 9,4 km/h
29.01.2018 13:00 9,6 C 80 % 1028,9 hPa 0,0 l/m 11,0 km/h W 6,3 C 6,6 C 6,1 km/h
29.01.2018 14:00 10,3 C 77 % 1028,1 hPa 0,0 l/m 20,7 km/h W 6,4 C 3,5 C 11,5 km/h
29.01.2018 15:00 9,8 C 78 % 1027,6 hPa 0,0 l/m 16,8 km/h W 6,1 C 4,2 C 9,4 km/h
29.01.2018 16:00 11,2 C 75 % 1027,8 hPa 0,0 l/m 22,0 km/h W 6,9 C 4,2 C 12,2 km/h
29.01.2018 17:00 8,5 C 81 % 1027,8 hPa 0,0 l/m 19,4 km/h W-SW 5,4 C 1,6 C 10,8 km/h
29.01.2018 18:00 8,2 C 83 % 1028,1 hPa 0,0 l/m 22,7 km/h W-SW 5,5 C 0,1 C 12,6 km/h
29.01.2018 19:00 8,1 C 84 % 1028,8 hPa 0,0 l/m 16,8 km/h W-SW 5,6 C 2,1 C 9,4 km/h
29.01.2018 20:00 8,1 C 85 % 1028,8 hPa 0,0 l/m 18,1 km/h W 5,7 C 1,5 C 10,1 km/h
29.01.2018 21:00 7,9 C 85 % 1029,0 hPa 0,0 l/m 20,1 km/h W 5,5 C 0,5 C 11,2 km/h
29.01.2018 22:00 7,9 C 85 % 1029,1 hPa 0,0 l/m 1,3 km/h S 5,5 C 7,9 C 0,7 km/h
29.01.2018 23:00 8,1 C 85 % 1029,1 hPa 0,0 l/m 11,0 km/h W 5,7 C 4,9 C 6,1 km/h
30.01.2018 00:00 8,1 C 85 % 1028,8 hPa 0,0 l/m 0,0 km/h W-SW 5,7 C 8,1 C 0,0 km/h
30.01.2018 01:00 8,1 C 85 % 1028,8 hPa 0,0 l/m 1,9 km/h W 5,7 C 8,1 C 1,1 km/h
30.01.2018 02:00 8,0 C 85 % 1028,8 hPa 0,0 l/m 3,2 km/h W 5,6 C 8,0 C 1,8 km/h
30.01.2018 03:00 8,1 C 84 % 1028,5 hPa 0,0 l/m 0,0 km/h W-SW 5,6 C 8,1 C 0,0 km/h
30.01.2018 04:00 7,8 C 84 % 1028,3 hPa 0,0 l/m 0,0 km/h W-SW 5,3 C 7,8 C 0,0 km/h
30.01.2018 05:00 7,3 C 85 % 1028,4 hPa 0,0 l/m 0,0 km/h W-SW 4,9 C 7,3 C 0,0 km/h
30.01.2018 06:00 6,9 C 85 % 1028,6 hPa 0,0 l/m 0,0 km/h W-SW 4,6 C 6,9 C 0,0 km/h
30.01.2018 07:00 6,8 C 86 % 1028,7 hPa 0,0 l/m 0,0 km/h W-SW 4,6 C 6,8 C 0,0 km/h
30.01.2018 08:00 7,0 C 86 % 1028,8 hPa 0,0 l/m 0,0 km/h W-SW 4,8 C 7,0 C 0,0 km/h
30.01.2018 09:00 8,6 C 86 % 1028,6 hPa 0,0 l/m 0,0 km/h W-SW 6,4 C 8,6 C 0,0 km/h
30.01.2018 10:00 9,8 C 84 % 1028,4 hPa 0,0 l/m 0,0 km/h W-NW 7,2 C 9,8 C 0,0 km/h
30.01.2018 11:00 11,0 C 79 % 1028,2 hPa 0,0 l/m 0,0 km/h S 7,5 C 11,0 C 0,0 km/h
30.01.2018 12:00 11,8 C 77 % 1027,3 hPa 0,0 l/m 0,0 km/h NW 7,9 C 11,8 C 0,0 km/h
30.01.2018 13:00 11,6 C 75 % 1026,6 hPa 0,0 l/m 0,0 km/h N 7,3 C 11,6 C 0,0 km/h
30.01.2018 14:00 11,1 C 76 % 1026,0 hPa 0,0 l/m 0,0 km/h N 7,0 C 11,1 C 0,0 km/h
30.01.2018 15:00 10,9 C 76 % 1025,5 hPa 0,0 l/m 0,0 km/h N 6,8 C 10,9 C 0,0 km/h
30.01.2018 16:00 9,6 C 78 % 1025,2 hPa 0,0 l/m 0,0 km/h N 6,0 C 9,6 C 0,0 km/h
30.01.2018 17:00 8,4 C 80 % 1024,5 hPa 0,0 l/m 0,0 km/h SO 5,2 C 8,4 C 0,0 km/h
30.01.2018 18:00 8,0 C 84 % 1024,3 hPa 0,0 l/m 2,6 km/h SO 5,5 C 8,0 C 1,4 km/h
30.01.2018 19:00 7,6 C 84 % 1024,2 hPa 0,0 l/m 0,0 km/h SO 5,1 C 7,6 C 0,0 km/h
30.01.2018 20:00 7,1 C 84 % 1024,1 hPa 0,0 l/m 0,0 km/h SO 4,6 C 7,1 C 0,0 km/h
30.01.2018 21:00 6,4 C 85 % 1023,6 hPa 0,0 l/m 0,0 km/h SO 4,1 C 6,4 C 0,0 km/h
30.01.2018 22:00 5,9 C 85 % 1023,5 hPa 0,0 l/m 0,0 km/h SO 3,6 C 5,9 C 0,0 km/h
30.01.2018 23:00 5,9 C 85 % 1023,2 hPa 0,0 l/m 0,0 km/h SO 3,6 C 5,9 C 0,0 km/h
31.01.2018 00:00 5,6 C 86 % 1022,4 hPa 0,0 l/m 0,0 km/h SO 3,4 C 5,6 C 0,0 km/h
31.01.2018 01:00 6,1 C 86 % 1021,7 hPa 0,0 l/m 7,1 km/h W-SW 3,9 C 5,5 C 4,0 km/h
31.01.2018 02:00 6,8 C 83 % 1021,3 hPa 0,0 l/m 0,0 km/h SW 4,1 C 6,8 C 0,0 km/h
31.01.2018 03:00 7,6 C 81 % 1020,1 hPa 0,0 l/m 4,5 km/h S 4,6 C 7,6 C 2,5 km/h
31.01.2018 04:00 7,8 C 81 % 1019,4 hPa 0,0 l/m 20,1 km/h S-SW 4,7 C 0,4 C 11,2 km/h
31.01.2018 05:00 7,6 C 80 % 1018,8 hPa 0,0 l/m 17,5 km/h SW 4,4 C 1,1 C 9,7 km/h
31.01.2018 06:00 7,4 C 81 % 1018,0 hPa 0,0 l/m 10,4 km/h W-SW 4,4 C 4,5 C 5,8 km/h
31.01.2018 07:00 7,3 C 80 % 1017,8 hPa 0,0 l/m 21,4 km/h S 4,1 C -0,7 C 11,9 km/h
31.01.2018 08:00 7,9 C 80 % 1017,2 hPa 0,0 l/m 23,3 km/h S-SW 4,7 C -0,5 C 13,0 km/h
31.01.2018 09:00 9,1 C 74 % 1015,7 hPa 0,0 l/m 19,4 km/h SW 4,7 C 2,3 C 10,8 km/h
31.01.2018 10:00 9,1 C 74 % 1015,4 hPa 0,0 l/m 21,4 km/h W-NW 4,7 C 1,7 C 11,9 km/h
31.01.2018 11:00 9,0 C 70 % 1014,7 hPa 0,0 l/m 20,1 km/h SW 3,8 C 2,0 C 11,2 km/h
31.01.2018 12:00 8,8 C 73 % 1013,2 hPa 0,0 l/m 25,3 km/h W-SW 4,2 C 0,1 C 14,0 km/h
31.01.2018 13:00 8,6 C 76 % 1011,7 hPa 0,0 l/m 35,0 km/h W 4,6 C -2,3 C 19,4 km/h
31.01.2018 14:00 8,8 C 75 % 1010,3 hPa 0,0 l/m 20,1 km/h W 4,6 C 1,7 C 11,2 km/h
31.01.2018 15:00 8,5 C 76 % 1008,7 hPa 0,0 l/m 14,9 km/h SW 4,5 C 3,4 C 8,3 km/h
31.01.2018 16:00 8,1 C 77 % 1007,9 hPa 0,0 l/m 26,6 km/h W-SW 4,3 C -1,2 C 14,8 km/h
31.01.2018 17:00 8,2 C 78 % 1006,6 hPa 0,0 l/m 17,5 km/h W-SW 4,6 C 1,9 C 9,7 km/h
31.01.2018 18:00 8,2 C 77 % 1006,5 hPa 0,0 l/m 18,8 km/h W-SW 4,4 C 1,4 C 10,4 km/h
31.01.2018 19:00 6,8 C 85 % 1005,9 hPa 0,0 l/m 23,3 km/h W 4,5 C -2,0 C 13,0 km/h
31.01.2018 20:00 6,6 C 85 % 1005,2 hPa 1,6 l/m 21,4 km/h SW 4,3 C -1,6 C 11,9 km/h
31.01.2018 21:00 7,4 C 85 % 1004,3 hPa 0,0 l/m 27,2 km/h W-SW 5,0 C -2,3 C 15,1 km/h
31.01.2018 22:00 7,3 C 85 % 1003,5 hPa 0,0 l/m 23,3 km/h W 4,9 C -1,3 C 13,0 km/h
31.01.2018 23:00 6,9 C 85 % 1003,0 hPa 0,0 l/m 18,8 km/h W 4,6 C -0,3 C 10,4 km/h
02.02.2018 00:00 -0,1 C 86 % 1005,3 hPa 0,0 l/m 0,0 km/h S-SO -2,2 C -0,1 C 0,0 km/h
02.02.2018 01:00 -0,1 C 86 % 1005,1 hPa 0,0 l/m 0,0 km/h O-NO -2,2 C -0,1 C 0,0 km/h
02.02.2018 02:00 0,7 C 86 % 1005,3 hPa 0,0 l/m 0,0 km/h O-SO -1,4 C 0,7 C 0,0 km/h
02.02.2018 03:00 0,5 C 86 % 1005,3 hPa 0,0 l/m 0,0 km/h S-SW -1,6 C 0,5 C 0,0 km/h
02.02.2018 04:00 -0,5 C 86 % 1005,2 hPa 0,0 l/m 0,0 km/h NO -2,5 C -0,5 C 0,0 km/h
02.02.2018 05:00 -1,1 C 86 % 1005,7 hPa 0,0 l/m 0,0 km/h NO -3,1 C -1,1 C 0,0 km/h
02.02.2018 06:00 -1,2 C 86 % 1005,1 hPa 0,0 l/m 0,0 km/h NO -3,2 C -1,2 C 0,0 km/h
02.02.2018 07:00 -1,8 C 85 % 1005,6 hPa 0,0 l/m 0,0 km/h NO -4,0 C -1,8 C 0,0 km/h
02.02.2018 08:00 0,1 C 83 % 1006,0 hPa 0,0 l/m 0,0 km/h W-SW -2,4 C 0,1 C 0,0 km/h
02.02.2018 09:00 3,8 C 83 % 1006,1 hPa 0,0 l/m 0,0 km/h W 1,2 C 3,8 C 0,0 km/h
02.02.2018 10:00 3,9 C 79 % 1006,1 hPa 0,0 l/m 27,9 km/h W-SW 0,6 C -7,3 C 15,5 km/h
02.02.2018 11:00 4,2 C 77 % 1006,1 hPa 0,0 l/m 16,2 km/h W-SW 0,5 C -2,5 C 9,0 km/h
02.02.2018 12:00 4,1 C 76 % 1005,8 hPa 0,0 l/m 22,0 km/h W-SW 0,3 C -5,1 C 12,2 km/h
02.02.2018 13:00 4,6 C 77 % 1005,6 hPa 0,0 l/m 20,1 km/h W 0,9 C -3,7 C 11,2 km/h
02.02.2018 14:00 4,8 C 78 % 1005,5 hPa 0,0 l/m 18,1 km/h W-SW 1,3 C -2,6 C 10,1 km/h
02.02.2018 15:00 3,7 C 81 % 1005,7 hPa 0,0 l/m 14,9 km/h SW 0,7 C -2,4 C 8,3 km/h
02.02.2018 16:00 4,3 C 79 % 1005,9 hPa 0,0 l/m 0,0 km/h W 1,0 C 4,3 C 0,0 km/h
02.02.2018 17:00 2,8 C 81 % 1006,1 hPa 0,0 l/m 0,0 km/h SW -0,1 C 2,8 C 0,0 km/h
02.02.2018 18:00 2,3 C 82 % 1006,0 hPa 0,0 l/m 0,0 km/h S-SW -0,4 C 2,3 C 0,0 km/h
02.02.2018 19:00 0,4 C 83 % 1006,5 hPa 0,0 l/m 0,0 km/h O-NO -2,1 C 0,4 C 0,0 km/h
02.02.2018 20:00 -0,2 C 85 % 1006,6 hPa 0,0 l/m 0,0 km/h O-NO -2,4 C -0,2 C 0,0 km/h
02.02.2018 21:00 -0,4 C 86 % 1007,1 hPa 0,0 l/m 0,0 km/h O-SO -2,4 C -0,4 C 0,0 km/h
02.02.2018 22:00 -0,1 C 86 % 1006,9 hPa 0,0 l/m 0,0 km/h O-SO -2,2 C -0,1 C 0,0 km/h
02.02.2018 23:00 -0,1 C 86 % 1006,5 hPa 0,0 l/m 0,0 km/h SO -2,2 C -0,1 C 0,0 km/h
03.02.2018 00:00 0,4 C 86 % 1006,4 hPa 0,0 l/m 0,0 km/h SO -1,7 C 0,4 C 0,0 km/h
03.02.2018 01:00 0,4 C 86 % 1006,1 hPa 0,0 l/m 0,0 km/h SO -1,7 C 0,4 C 0,0 km/h
03.02.2018 02:00 0,6 C 86 % 1005,8 hPa 0,0 l/m 0,0 km/h SO -1,5 C 0,6 C 0,0 km/h
03.02.2018 03:00 0,9 C 86 % 1005,4 hPa 0,0 l/m 0,0 km/h SO -1,2 C 0,9 C 0,0 km/h
03.02.2018 04:00 1,1 C 86 % 1005,2 hPa 0,0 l/m 0,0 km/h SO -1,0 C 1,1 C 0,0 km/h
03.02.2018 05:00 1,2 C 86 % 1005,6 hPa 0,0 l/m 0,0 km/h SO -0,9 C 1,2 C 0,0 km/h
03.02.2018 06:00 1,4 C 86 % 1005,5 hPa 0,0 l/m 0,0 km/h SO -0,7 C 1,4 C 0,0 km/h
03.02.2018 07:00 1,3 C 86 % 1005,7 hPa 0,0 l/m 0,0 km/h SO -0,8 C 1,3 C 0,0 km/h
03.02.2018 08:00 1,8 C 86 % 1005,9 hPa 0,0 l/m 0,0 km/h SO -0,3 C 1,8 C 0,0 km/h
03.02.2018 09:00 2,5 C 86 % 1005,8 hPa 0,0 l/m 0,0 km/h W-NW 0,4 C 2,5 C 0,0 km/h
03.02.2018 10:00 4,4 C 85 % 1005,6 hPa 0,0 l/m 0,0 km/h W-SW 2,1 C 4,4 C 0,0 km/h
03.02.2018 11:00 6,2 C 81 % 1005,3 hPa 0,0 l/m 0,0 km/h NW 3,2 C 6,2 C 0,0 km/h
03.02.2018 12:00 5,9 C 75 % 1004,9 hPa 0,0 l/m 0,0 km/h W 1,8 C 5,9 C 0,0 km/h
03.02.2018 13:00 5,3 C 76 % 1004,5 hPa 0,0 l/m 0,0 km/h W 1,4 C 5,3 C 0,0 km/h
03.02.2018 14:00 5,8 C 72 % 1003,9 hPa 0,0 l/m 13,0 km/h W 1,2 C 1,1 C 7,2 km/h
03.02.2018 15:00 4,2 C 76 % 1004,0 hPa 0,0 l/m 14,3 km/h SW 0,4 C -1,5 C 7,9 km/h
03.02.2018 16:00 3,6 C 77 % 1004,2 hPa 0,0 l/m 20,7 km/h W -0,0 C -5,3 C 11,5 km/h
03.02.2018 17:00 3,3 C 79 % 1004,7 hPa 0,0 l/m 14,9 km/h SO 0,0 C -2,9 C 8,3 km/h
03.02.2018 18:00 1,0 C 83 % 1004,9 hPa 0,0 l/m 17,5 km/h S-SO -1,6 C -7,1 C 9,7 km/h
03.02.2018 19:00 0,6 C 85 % 1005,1 hPa 0,0 l/m 0,0 km/h S-SO -1,6 C 0,6 C 0,0 km/h
03.02.2018 20:00 0,4 C 86 % 1005,3 hPa 0,0 l/m 0,0 km/h SO -1,7 C 0,4 C 0,0 km/h
03.02.2018 21:00 0,3 C 86 % 1005,4 hPa 0,0 l/m 0,0 km/h SO -1,8 C 0,3 C 0,0 km/h
03.02.2018 22:00 -0,9 C 86 % 1006,0 hPa 0,0 l/m 0,0 km/h SO -2,9 C -0,9 C 0,0 km/h
03.02.2018 23:00 -1,9 C 87 % 1006,5 hPa 0,0 l/m 0,0 km/h O -3,8 C -1,9 C 0,0 km/h
04.02.2018 00:00 -2,1 C 87 % 1007,0 hPa 0,0 l/m 0,0 km/h O -4,0 C -2,1 C 0,0 km/h
04.02.2018 01:00 -2,1 C 86 % 1007,3 hPa 0,0 l/m 0,0 km/h SO -4,1 C -2,1 C 0,0 km/h
04.02.2018 02:00 -1,7 C 86 % 1007,8 hPa 0,0 l/m 0,0 km/h SO -3,7 C -1,7 C 0,0 km/h
04.02.2018 03:00 -1,7 C 86 % 1008,2 hPa 0,0 l/m 0,0 km/h SO -3,7 C -1,7 C 0,0 km/h
04.02.2018 04:00 -1,4 C 85 % 1008,8 hPa 0,0 l/m 0,0 km/h SO -3,6 C -1,4 C 0,0 km/h
04.02.2018 05:00 -1,9 C 85 % 1009,3 hPa 0,0 l/m 0,0 km/h SO -4,1 C -1,9 C 0,0 km/h
04.02.2018 06:00 -2,4 C 86 % 1009,7 hPa 0,0 l/m 0,0 km/h SO -4,4 C -2,4 C 0,0 km/h
04.02.2018 07:00 -2,5 C 85 % 1010,5 hPa 0,0 l/m 13,6 km/h SO -4,7 C -9,1 C 7,6 km/h
04.02.2018 08:00 -0,4 C 83 % 1011,1 hPa 0,0 l/m 5,8 km/h SO -2,9 C -0,4 C 3,2 km/h
04.02.2018 09:00 2,3 C 85 % 1011,5 hPa 0,0 l/m 0,0 km/h SO 0,0 C 2,3 C 0,0 km/h
04.02.2018 10:00 8,6 C 74 % 1012,2 hPa 0,5 l/m 0,0 km/h NW 4,2 C 8,6 C 0,0 km/h
04.02.2018 11:00 10,5 C 60 % 1012,4 hPa 0,0 l/m 13,6 km/h NW 3,1 C 6,3 C 7,6 km/h
04.02.2018 12:00 9,6 C 58 % 1012,7 hPa 0,0 l/m 0,0 km/h N-NO 1,8 C 9,6 C 0,0 km/h
04.02.2018 13:00 8,2 C 57 % 1012,6 hPa 0,0 l/m 0,0 km/h N-NO 0,2 C 8,2 C 0,0 km/h
04.02.2018 14:00 6,8 C 61 % 1012,8 hPa 0,0 l/m 0,0 km/h NO -0,2 C 6,8 C 0,0 km/h
04.02.2018 15:00 7,4 C 63 % 1012,7 hPa 0,0 l/m 0,0 km/h N-NW 0,8 C 7,4 C 0,0 km/h
04.02.2018 16:00 10,1 C 56 % 1013,2 hPa 0,0 l/m 11,7 km/h NW 1,7 C 6,8 C 6,5 km/h
04.02.2018 17:00 1,4 C 79 % 1013,7 hPa 0,0 l/m 0,0 km/h W-NW -1,8 C 1,4 C 0,0 km/h
04.02.2018 18:00 0,5 C 83 % 1014,3 hPa 0,0 l/m 0,0 km/h NW -2,0 C 0,5 C 0,0 km/h
04.02.2018 19:00 0,4 C 85 % 1014,7 hPa 0,0 l/m 0,0 km/h NW -1,8 C 0,4 C 0,0 km/h
04.02.2018 20:00 0,8 C 85 % 1015,4 hPa 0,0 l/m 0,0 km/h NW -1,4 C 0,8 C 0,0 km/h
04.02.2018 21:00 0,3 C 86 % 1015,9 hPa 0,0 l/m 0,0 km/h NW -1,8 C 0,3 C 0,0 km/h
04.02.2018 22:00 0,1 C 86 % 1016,3 hPa 0,0 l/m 0,0 km/h NW -2,0 C 0,1 C 0,0 km/h
04.02.2018 23:00 0,1 C 86 % 1016,4 hPa 0,0 l/m 0,0 km/h NW -2,0 C 0,1 C 0,0 km/h
Min-Datum _ 04.02.18 04.02.18 31.01.18 - 29.01.18 - 04.02.18 04.02.18 29.01.18
_ Min-Zeit 07:53 16:53 23:53 - 00:53 - 07:53 07:53 00:53
Minimum _ -2,5 C 56 % 1003,0 hPa - 0,0 km/h - -4,7 C -9,1 C 0,0 km/h
Max-Datum _ 30.01.18 03.02.18 29.01.18 31.01.18 31.01.18 - 30.01.18 30.01.18 31.01.18
_ Max-Zeit 12:53 23:53 00:53 20:53 13:53 - 12:53 12:53 13:53
Maximum _ 11,8 C 87 % 1033,5 hPa 1,6 l/m 35,0 km/h
W
- 7,9 C 11,8 C 19,4 km/h
W
Durchschnitt _ 4,9 C 81 % 1015,5 hPa #2,1 l/m 6,6 km/h SO 1,9 C 2,6 C 3,7 km/h
www.sexauwetter.de